Terminal Aerodrome Forecast
Issued by NWS Wakefield, VA

Home | Current Version | Previous Version | Text Only | Print | Product List | Glossary On
Versions: 1 2 3 4 5 6 7 8 9 10 11 12 13 14 15 16 17
049
FTUS41 KAKQ 081739
TAFORF
TAF
KORF 081739Z 0818/0918 33007KT P6SM SCT030 SCT250
     FM082300 09008KT P6SM OVC090
     FM090200 16008KT 6SM -RA BR OVC025
     FM090500 21008KT P6SM BKN020
     FM091000 27006KT P6SM SCT020 SCT070
     FM091500 25011KT P6SM BKN035=

USA.gov is the U.S. government's official web portal to all federal, state and local government web resources and services.